createdAt,value
2019-02-07T00:01:15.306Z,15.77
2019-02-07T00:03:44.974Z,18.73
2019-02-07T00:06:14.095Z,17.17
2019-02-07T00:08:43.193Z,19.13
2019-02-07T00:11:12.482Z,17.27
2019-02-07T00:13:41.565Z,15.73
2019-02-07T00:16:10.701Z,16.27
2019-02-07T00:18:40.231Z,17.93
2019-02-07T00:21:09.281Z,18.37
2019-02-07T00:23:38.417Z,18.17
2019-02-07T00:26:07.722Z,16.03
2019-02-07T00:28:36.821Z,16.63
2019-02-07T00:31:06.835Z,15.53
2019-02-07T00:33:36.463Z,14.27
2019-02-07T00:36:05.743Z,13.87
2019-02-07T00:38:34.908Z,15.23
2019-02-07T00:41:04.173Z,14.00
2019-02-07T00:43:33.220Z,13.23
2019-02-07T00:46:02.268Z,13.60
2019-02-07T00:48:31.957Z,13.93
2019-02-07T00:51:01.044Z,12.47
2019-02-07T00:53:30.096Z,14.13
2019-02-07T00:55:59.231Z,13.37
2019-02-07T00:58:28.723Z,13.93
2019-02-07T01:00:57.773Z,14.33
2019-02-07T01:03:27.253Z,12.93
2019-02-07T01:05:56.318Z,12.37
2019-02-07T01:08:25.471Z,12.77
2019-02-07T01:10:54.517Z,13.03
2019-02-07T01:13:23.578Z,10.77
2019-02-07T01:15:52.658Z,12.63
2019-02-07T01:18:22.318Z,13.97
2019-02-07T01:20:51.453Z,11.90
2019-02-07T01:23:20.688Z,11.80
2019-02-07T01:25:49.920Z,12.97
2019-02-07T01:28:19.038Z,10.30
2019-02-07T01:30:48.180Z,12.33
2019-02-07T01:33:17.584Z,10.33
2019-02-07T01:35:46.630Z,12.03
2019-02-07T01:38:15.784Z,10.03
2019-02-07T01:40:44.869Z,10.50
2019-02-07T01:43:13.998Z,10.57
2019-02-07T01:45:43.038Z,10.77
2019-02-07T01:48:12.659Z,10.27
2019-02-07T01:50:41.706Z,10.07
2019-02-07T01:53:10.762Z,8.27
2019-02-07T01:55:39.964Z,9.10
2019-02-07T01:58:09.033Z,9.80
2019-02-07T02:00:38.119Z,8.57
2019-02-07T02:03:07.247Z,8.47
2019-02-07T02:05:36.281Z,7.70
2019-02-07T02:08:05.340Z,7.17
2019-02-07T02:10:34.467Z,8.17
2019-02-07T02:13:03.498Z,7.23
2019-02-07T02:15:32.566Z,8.33
2019-02-07T02:18:01.695Z,8.10
2019-02-07T02:20:30.767Z,7.50
2019-02-07T02:22:59.857Z,7.03
2019-02-07T02:25:29.234Z,7.40
2019-02-07T02:27:58.281Z,5.50
2019-02-07T02:30:29.531Z,7.07
2019-02-07T02:32:58.781Z,6.33
2019-02-07T02:35:27.955Z,6.57
2019-02-07T02:37:57.019Z,5.57
2019-02-07T02:40:26.487Z,5.20
2019-02-07T02:42:55.966Z,5.93
2019-02-07T02:45:36.708Z,6.20
2019-02-07T02:47:56.823Z,6.00
2019-02-07T02:50:26.073Z,5.73
2019-02-07T02:52:55.198Z,5.73
2019-02-07T02:55:29.480Z,5.67
2019-02-07T02:57:58.551Z,5.67
2019-02-07T03:00:40.834Z,6.80
2019-02-07T03:03:18.350Z,6.40
2019-02-07T03:06:15.792Z,5.90
2019-02-07T03:09:04.020Z,6.20
2019-02-07T03:11:56.268Z,5.20
2019-02-07T03:14:38.034Z,4.70
2019-02-07T03:17:28.453Z,6.43
2019-02-07T03:20:06.938Z,3.97
2019-02-07T03:22:53.692Z,4.93
2019-02-07T03:25:40.354Z,4.97
2019-02-07T03:28:22.016Z,5.10
2019-02-07T03:31:08.824Z,5.20
2019-02-07T03:34:09.130Z,5.30
2019-02-07T03:36:55.716Z,5.13
2019-02-07T03:39:33.460Z,5.60
2019-02-07T03:42:27.338Z,5.17
2019-02-07T03:45:14.303Z,5.43
2019-02-07T03:47:56.142Z,4.63
2019-02-07T03:50:37.224Z,5.97
2019-02-07T03:53:18.312Z,5.30
2019-02-07T03:56:15.711Z,4.33
2019-02-07T03:59:09.608Z,6.17
2019-02-07T04:01:53.517Z,4.57
2019-02-07T04:04:43.360Z,5.97
2019-02-07T04:07:35.401Z,5.07
2019-02-07T04:10:18.109Z,7.20
2019-02-07T04:13:16.325Z,4.33
2019-02-07T04:16:15.337Z,5.27
2019-02-07T04:19:05.374Z,5.63
2019-02-07T04:21:45.392Z,6.13
2019-02-07T04:24:31.866Z,5.63
2019-02-07T04:27:37.922Z,4.93
2019-02-07T04:30:17.811Z,7.83
2019-02-07T04:33:09.723Z,7.23
2019-02-07T04:35:55.770Z,7.53
2019-02-07T04:38:43.299Z,5.40
2019-02-07T04:41:20.867Z,6.70
2019-02-07T04:44:07.140Z,6.63
2019-02-07T04:46:57.621Z,6.43
2019-02-07T04:49:47.385Z,5.00
2019-02-07T04:52:50.828Z,5.80
2019-02-07T04:55:39.246Z,5.60
2019-02-07T04:58:20.442Z,6.93
2019-02-07T05:01:08.636Z,6.12
2019-02-07T05:03:50.738Z,6.17
2019-02-07T05:06:54.022Z,5.37
2019-02-07T05:09:42.226Z,7.67
2019-02-07T05:12:45.388Z,7.27
2019-02-07T05:15:39.678Z,8.53
2019-02-07T05:18:19.217Z,7.20
2019-02-07T05:20:56.709Z,7.03
2019-02-07T05:23:44.219Z,5.90
2019-02-07T05:26:40.016Z,6.37
2019-02-07T05:29:21.166Z,6.13
2019-02-07T05:32:08.920Z,8.08
2019-02-07T05:35:03.635Z,6.37
2019-02-07T05:38:01.062Z,6.23
2019-02-07T05:40:49.704Z,5.50
2019-02-07T05:43:30.434Z,9.40
2019-02-07T05:46:17.186Z,7.67
2019-02-07T05:49:17.483Z,7.20
2019-02-07T05:52:00.139Z,20.33
2019-02-07T05:54:51.205Z,19.03
2019-02-07T05:57:28.011Z,13.43
2019-02-07T06:00:16.913Z,15.47
2019-02-07T06:03:09.806Z,16.30
2019-02-07T06:05:56.533Z,21.03
2019-02-07T06:08:36.545Z,19.67
2019-02-07T06:11:28.182Z,14.27
2019-02-07T06:14:25.299Z,17.40
2019-02-07T06:17:09.469Z,21.23
2019-02-07T06:20:00.353Z,22.90
2019-02-07T06:22:47.467Z,23.03
2019-02-07T06:25:24.577Z,24.23
2019-02-07T06:28:25.027Z,21.13
2019-02-07T06:31:15.575Z,17.90
2019-02-07T06:34:01.947Z,26.47
2019-02-07T06:37:02.645Z,20.10
2019-02-07T06:39:49.496Z,17.00
2019-02-07T06:42:49.819Z,21.27
2019-02-07T06:45:27.979Z,22.80
2019-02-07T06:48:18.301Z,25.10
2019-02-07T06:51:06.195Z,20.40
2019-02-07T06:53:50.126Z,27.40
2019-02-07T06:56:44.353Z,23.67
2019-02-07T06:59:32.453Z,22.27
2019-02-07T07:02:19.677Z,19.00
2019-02-07T07:04:59.526Z,19.20
2019-02-07T07:07:50.683Z,22.30
2019-02-07T07:10:37.246Z,27.53
2019-02-07T07:13:37.741Z,22.87
2019-02-07T07:16:21.715Z,19.40
2019-02-07T07:19:09.306Z,25.70
2019-02-07T07:21:55.982Z,26.50
2019-02-07T07:24:59.722Z,26.03
2019-02-07T07:27:51.104Z,29.30
2019-02-07T07:30:39.894Z,18.50
2019-02-07T07:33:21.714Z,25.20
2019-02-07T07:36:16.014Z,28.07
2019-02-07T07:39:13.315Z,24.77
2019-02-07T07:42:00.351Z,23.40
2019-02-07T07:44:49.726Z,25.23
2019-02-07T07:47:44.217Z,25.93
2019-02-07T07:50:41.617Z,22.80
2019-02-07T07:53:39.239Z,19.60
2019-02-07T07:56:24.660Z,27.70
2019-02-07T07:59:19.210Z,22.80
2019-02-07T08:02:06.117Z,24.13
2019-02-07T08:04:54.566Z,22.43
2019-02-07T08:07:45.797Z,16.40
2019-02-07T08:10:38.942Z,21.40
2019-02-07T08:13:26.006Z,20.67
2019-02-07T08:16:12.967Z,18.87
2019-02-07T08:19:01.878Z,21.93
2019-02-07T08:21:47.209Z,20.03
2019-02-07T08:24:54.107Z,20.47
2019-02-07T08:27:42.841Z,21.47
2019-02-07T08:30:36.841Z,18.90
2019-02-07T08:33:34.406Z,18.17
2019-02-07T08:36:22.735Z,18.07
2019-02-07T08:39:07.604Z,19.00
2019-02-07T08:41:49.795Z,20.93
2019-02-07T08:44:36.925Z,27.03
2019-02-07T08:47:25.083Z,14.93
2019-02-07T08:50:08.598Z,20.50
2019-02-07T08:52:50.076Z,21.60
2019-02-07T08:55:34.924Z,18.60
2019-02-07T08:58:20.418Z,18.43
2019-02-07T09:01:06.517Z,15.80
2019-02-07T09:04:00.540Z,14.67
2019-02-07T09:06:47.506Z,27.07
2019-02-07T09:09:26.238Z,29.87
2019-02-07T09:12:21.637Z,20.57
2019-02-07T09:15:17.440Z,23.13
2019-02-07T09:18:11.420Z,23.63
2019-02-07T09:21:03.489Z,19.63
2019-02-07T09:23:50.691Z,18.77
2019-02-07T09:26:35.893Z,28.23
2019-02-07T09:29:20.426Z,21.57
2019-02-07T09:32:21.697Z,19.97
2019-02-07T09:35:01.682Z,25.27
2019-02-07T09:37:48.371Z,19.03
2019-02-07T09:40:42.621Z,24.80
2019-02-07T09:43:26.363Z,22.70
2019-02-07T09:46:13.579Z,18.70
2019-02-07T09:49:00.328Z,17.90
2019-02-07T09:51:57.700Z,22.40
2019-02-07T09:54:38.619Z,27.53
2019-02-07T09:57:27.473Z,18.40
2019-02-07T10:00:31.293Z,20.63
2019-02-07T10:03:13.589Z,18.83
2019-02-07T10:06:01.851Z,19.20
2019-02-07T10:08:41.662Z,19.37
2019-02-07T10:11:35.755Z,17.97
2019-02-07T10:14:27.158Z,15.63
2019-02-07T10:17:21.263Z,23.83
2019-02-07T10:20:15.557Z,17.73
2019-02-07T10:23:15.903Z,22.20
2019-02-07T10:26:13.655Z,18.00
2019-02-07T10:29:03.613Z,18.63
2019-02-07T10:32:00.780Z,20.17
2019-02-07T10:34:38.080Z,23.10
2019-02-07T10:37:35.674Z,22.13
2019-02-07T10:40:16.317Z,19.33
2019-02-07T10:42:56.767Z,19.17
2019-02-07T10:45:45.272Z,17.30
2019-02-07T10:48:32.271Z,9.40
2019-02-07T10:51:19.337Z,22.33
2019-02-07T10:54:16.758Z,20.50
2019-02-07T10:57:03.993Z,12.95
2019-02-07T10:59:52.475Z,18.83
2019-02-07T11:02:34.745Z,15.67
2019-02-07T11:05:32.750Z,18.33
2019-02-07T11:08:16.378Z,15.33
2019-02-07T11:11:09.448Z,10.97
2019-02-07T11:13:47.046Z,16.20
2019-02-07T11:16:33.848Z,25.17
2019-02-07T11:19:27.996Z,20.97
2019-02-07T11:22:28.668Z,18.50
2019-02-07T11:25:16.796Z,17.93
2019-02-07T11:28:10.546Z,15.20
2019-02-07T11:30:57.408Z,16.83
2019-02-07T11:33:51.862Z,15.80
2019-02-07T11:36:53.763Z,18.17
2019-02-07T11:39:48.378Z,19.07
2019-02-07T11:42:28.818Z,18.57
2019-02-07T11:45:11.387Z,19.63
2019-02-07T11:48:11.806Z,16.97
2019-02-07T11:51:04.896Z,16.50
2019-02-07T11:53:52.546Z,14.47
2019-02-07T11:56:35.875Z,8.47
2019-02-07T11:59:24.244Z,15.27
2019-02-07T12:02:09.057Z,16.17
2019-02-07T12:04:49.653Z,16.77
2019-02-07T12:07:29.050Z,14.33
2019-02-07T12:10:25.921Z,13.70
2019-02-07T12:13:05.971Z,13.90
2019-02-07T12:16:13.068Z,13.45
2019-02-07T12:19:17.498Z,14.00
2019-02-07T12:21:56.914Z,19.50
2019-02-07T12:24:45.205Z,18.13
2019-02-07T12:27:48.691Z,13.47
2019-02-07T12:30:55.445Z,13.53
2019-02-07T12:33:42.934Z,14.43
2019-02-07T12:36:43.199Z,17.33
2019-02-07T12:39:49.583Z,12.07
2019-02-07T12:42:43.707Z,18.00
2019-02-07T12:45:30.333Z,13.27
2019-02-07T12:48:31.897Z,18.33
2019-02-07T12:51:13.903Z,14.03
2019-02-07T12:53:55.233Z,15.77
2019-02-07T12:56:49.383Z,20.73
2019-02-07T12:59:30.270Z,12.77
2019-02-07T13:02:18.474Z,18.93
2019-02-07T13:05:05.239Z,15.37
2019-02-07T13:08:05.742Z,12.70
2019-02-07T13:10:52.443Z,15.20
2019-02-07T13:13:47.010Z,12.10
2019-02-07T13:16:33.937Z,15.03
2019-02-07T13:19:40.251Z,13.40
2019-02-07T13:22:23.537Z,13.03
2019-02-07T13:25:02.186Z,13.00
2019-02-07T13:27:43.204Z,17.97
2019-02-07T13:30:35.499Z,16.67
2019-02-07T13:33:26.881Z,18.60
2019-02-07T13:36:12.126Z,21.00
2019-02-07T13:39:01.054Z,14.95
2019-02-07T13:41:58.195Z,11.60
2019-02-07T13:44:41.822Z,12.87
2019-02-07T13:47:31.538Z,14.27
2019-02-07T13:50:18.828Z,12.90
2019-02-07T13:53:12.411Z,15.73
2019-02-07T13:55:59.720Z,14.83
2019-02-07T13:58:38.338Z,12.73
2019-02-07T14:01:18.090Z,20.50
2019-02-07T14:04:12.209Z,13.37
2019-02-07T14:07:00.507Z,16.27
2019-02-07T14:09:47.176Z,15.20
2019-02-07T14:12:50.735Z,20.07
2019-02-07T14:15:38.419Z,17.40
2019-02-07T14:18:29.479Z,17.30
2019-02-07T14:21:32.949Z,16.07
2019-02-07T14:24:24.233Z,16.83
2019-02-07T14:27:24.253Z,17.13
2019-02-07T14:30:27.449Z,17.03
2019-02-07T14:33:30.559Z,12.97
2019-02-07T14:36:17.488Z,15.30
2019-02-07T14:39:01.145Z,15.63
2019-02-07T14:41:39.274Z,12.23
2019-02-07T14:44:17.427Z,16.33
2019-02-07T14:46:48.801Z,11.90
2019-02-07T14:49:17.944Z,11.63
2019-02-07T14:51:47.260Z,16.97
2019-02-07T14:54:17.150Z,17.53
2019-02-07T14:56:46.350Z,13.50
2019-02-07T14:59:15.553Z,10.80
2019-02-07T15:01:44.807Z,17.07
2019-02-07T15:04:14.188Z,14.23
2019-02-07T15:06:43.250Z,17.13
2019-02-07T15:09:20.240Z,13.60
2019-02-07T15:11:49.308Z,16.13
2019-02-07T15:14:18.368Z,11.67
2019-02-07T15:16:47.639Z,11.23
2019-02-07T15:19:16.702Z,14.93
2019-02-07T15:21:45.811Z,14.40
2019-02-07T15:24:15.270Z,16.23
2019-02-07T15:26:44.259Z,10.40
2019-02-07T15:29:15.916Z,14.93
2019-02-07T15:31:44.401Z,17.03
2019-02-07T15:34:13.540Z,14.80
2019-02-07T15:36:44.932Z,15.67
2019-02-07T15:39:15.981Z,17.50
2019-02-07T15:41:45.388Z,12.80
2019-02-07T15:44:14.691Z,18.07
2019-02-07T15:46:43.818Z,13.53
2019-02-07T15:49:12.986Z,22.40
2019-02-07T15:51:42.391Z,15.73
2019-02-07T15:54:11.538Z,19.10
2019-02-07T15:56:40.606Z,14.97
2019-02-07T15:59:33.454Z,13.60
2019-02-07T16:02:24.517Z,13.60
2019-02-07T16:04:54.034Z,16.93
2019-02-07T16:07:23.118Z,20.47
2019-02-07T16:09:52.257Z,18.77
2019-02-07T16:12:21.630Z,23.33
2019-02-07T16:14:50.789Z,17.63
2019-02-07T16:17:19.868Z,15.33
2019-02-07T16:19:50.139Z,23.03
2019-02-07T16:22:19.338Z,19.27
2019-02-07T16:24:48.413Z,15.63
2019-02-07T16:27:18.019Z,15.23
2019-02-07T16:29:47.011Z,13.07
2019-02-07T16:32:16.085Z,18.23
2019-02-07T16:34:45.382Z,20.83
2019-02-07T16:37:14.528Z,16.00
2019-02-07T16:39:43.577Z,18.40
2019-02-07T16:42:12.973Z,16.60
2019-02-07T16:44:42.065Z,12.50
2019-02-07T16:47:11.707Z,15.10
2019-02-07T16:49:40.917Z,16.67
2019-02-07T16:52:10.083Z,15.30
2019-02-07T16:54:39.182Z,16.53
2019-02-07T16:57:08.437Z,20.87
2019-02-07T16:59:37.501Z,13.53
2019-02-07T17:02:06.575Z,18.77
2019-02-07T17:04:35.865Z,13.07
2019-02-07T17:07:04.924Z,20.73
2019-02-07T17:09:39.502Z,16.53
2019-02-07T17:12:08.878Z,14.93
2019-02-07T17:14:38.015Z,18.13
2019-02-07T17:17:07.280Z,13.20
2019-02-07T17:19:36.355Z,17.87
2019-02-07T17:22:05.526Z,22.03
2019-02-07T17:24:35.528Z,14.37
2019-02-07T17:27:04.954Z,16.93
2019-02-07T17:29:34.006Z,17.50
2019-02-07T17:32:03.691Z,17.70
2019-02-07T17:34:32.754Z,19.00
2019-02-07T17:37:01.842Z,17.93
2019-02-07T17:39:31.166Z,15.17
2019-02-07T17:42:00.630Z,12.20
2019-02-07T17:44:29.612Z,15.73
2019-02-07T17:46:58.924Z,18.37
2019-02-07T17:49:28.265Z,21.07
2019-02-07T17:51:57.323Z,16.43
2019-02-07T17:54:26.720Z,16.70
2019-02-07T17:56:58.146Z,21.27
2019-02-07T17:59:27.378Z,14.60
2019-02-07T18:01:56.502Z,17.93
2019-02-07T18:04:25.562Z,13.67
2019-02-07T18:06:54.816Z,16.03
2019-02-07T18:09:23.866Z,18.50
2019-02-07T18:11:52.932Z,20.53
2019-02-07T18:14:22.334Z,19.87
2019-02-07T18:16:51.462Z,18.67
2019-02-07T18:19:20.593Z,18.50
2019-02-07T18:21:49.829Z,23.60
2019-02-07T18:24:18.888Z,21.00
2019-02-07T18:26:47.950Z,14.90
2019-02-07T18:29:17.387Z,21.50
2019-02-07T18:31:46.299Z,15.93
2019-02-07T18:34:15.346Z,15.57
2019-02-07T18:36:44.649Z,17.67
2019-02-07T18:39:13.623Z,17.03
2019-02-07T18:41:42.697Z,20.40
2019-02-07T18:44:12.246Z,19.87
2019-02-07T18:46:41.295Z,23.10
2019-02-07T18:49:10.381Z,20.20
2019-02-07T18:51:45.695Z,20.13
2019-02-07T18:54:10.461Z,19.00
2019-02-07T18:56:39.441Z,20.10
2019-02-07T18:59:09.069Z,21.73
2019-02-07T19:01:38.105Z,24.50
2019-02-07T19:04:07.172Z,15.77
2019-02-07T19:06:36.258Z,22.13
2019-02-07T19:09:11.502Z,13.07
2019-02-07T19:11:40.815Z,27.73
2019-02-07T19:14:10.031Z,20.53
2019-02-07T19:16:39.044Z,21.33
2019-02-07T19:19:08.292Z,23.37
2019-02-07T19:21:37.371Z,18.40
2019-02-07T19:24:06.452Z,16.40
2019-02-07T19:26:35.752Z,18.90
2019-02-07T19:29:05.896Z,20.93
2019-02-07T19:31:34.952Z,20.53
2019-02-07T19:34:04.612Z,16.53
2019-02-07T19:36:33.725Z,20.13
2019-02-07T19:39:05.730Z,17.13
2019-02-07T19:41:34.795Z,20.43
2019-02-07T19:44:04.650Z,20.63
2019-02-07T19:46:33.883Z,22.53
2019-02-07T19:49:03.136Z,23.97
2019-02-07T19:51:32.199Z,19.83
2019-02-07T19:54:01.546Z,17.27
2019-02-07T19:56:30.606Z,18.50
2019-02-07T19:58:59.656Z,21.57
2019-02-07T20:01:28.847Z,25.67
2019-02-07T20:03:57.949Z,21.80
2019-02-07T20:06:27.002Z,22.40
2019-02-07T20:08:56.232Z,24.80
2019-02-07T20:11:25.231Z,24.13
2019-02-07T20:13:54.342Z,21.63
2019-02-07T20:16:23.924Z,24.90
2019-02-07T20:18:56.821Z,19.67
2019-02-07T20:21:25.948Z,24.03
2019-02-07T20:24:01.925Z,24.87
2019-02-07T20:26:31.049Z,25.93
2019-02-07T20:29:00.144Z,22.23
2019-02-07T20:31:29.755Z,16.60
2019-02-07T20:33:58.960Z,24.70
2019-02-07T20:36:28.732Z,17.40
2019-02-07T20:38:57.881Z,19.23
2019-02-07T20:41:27.112Z,20.40
2019-02-07T20:43:56.239Z,22.17
2019-02-07T20:46:25.349Z,20.67
2019-02-07T20:48:54.623Z,19.40
2019-02-07T20:51:23.680Z,19.47
2019-02-07T20:53:52.814Z,18.73
2019-02-07T20:56:22.103Z,17.77
2019-02-07T20:58:51.250Z,24.10
2019-02-07T21:01:20.406Z,24.13
2019-02-07T21:03:49.775Z,20.63
2019-02-07T21:06:18.895Z,28.57
2019-02-07T21:08:47.858Z,18.77
2019-02-07T21:11:17.299Z,21.67
2019-02-07T21:13:46.449Z,16.50
2019-02-07T21:16:15.559Z,17.80
2019-02-07T21:18:44.938Z,22.60
2019-02-07T21:21:14.265Z,28.67
2019-02-07T21:23:43.360Z,22.33
2019-02-07T21:26:12.584Z,19.65
2019-02-07T21:28:41.656Z,19.67
2019-02-07T21:31:10.790Z,20.93
2019-02-07T21:33:40.004Z,28.47
2019-02-07T21:36:09.066Z,27.90
2019-02-07T21:38:38.350Z,20.17
2019-02-07T21:41:07.534Z,19.70
2019-02-07T21:43:36.715Z,23.60
2019-02-07T21:46:05.754Z,25.47
2019-02-07T21:48:35.107Z,17.87
2019-02-07T21:51:04.248Z,24.80
2019-02-07T21:53:33.370Z,22.80
2019-02-07T21:56:02.614Z,20.13
2019-02-07T21:58:31.696Z,13.77
2019-02-07T22:01:00.760Z,22.30
2019-02-07T22:03:29.919Z,16.97
2019-02-07T22:05:59.062Z,14.13
2019-02-07T22:08:28.130Z,20.83
2019-02-07T22:10:57.954Z,17.50
2019-02-07T22:13:27.115Z,26.00
2019-02-07T22:15:56.178Z,25.03
2019-02-07T22:18:25.461Z,23.07
2019-02-07T22:20:54.604Z,12.53
2019-02-07T22:23:23.670Z,19.80
2019-02-07T22:25:53.150Z,10.60
2019-02-07T22:28:22.232Z,17.23
2019-02-07T22:30:51.299Z,14.53
2019-02-07T22:33:20.671Z,18.60
2019-02-07T22:35:49.647Z,13.10
2019-02-07T22:38:19.643Z,11.10
2019-02-07T22:40:49.381Z,23.60
2019-02-07T22:43:18.469Z,18.20
2019-02-07T22:45:47.585Z,16.10
2019-02-07T22:48:16.643Z,13.90
2019-02-07T22:50:45.649Z,15.50
2019-02-07T22:53:14.695Z,18.97
2019-02-07T22:55:44.011Z,16.00
2019-02-07T22:58:13.053Z,13.00
2019-02-07T23:01:26.819Z,15.30
2019-02-07T23:04:00.416Z,15.90
2019-02-07T23:06:29.660Z,15.50
2019-02-07T23:08:58.697Z,15.43
2019-02-07T23:11:28.165Z,13.27
2019-02-07T23:13:57.377Z,19.43
2019-02-07T23:16:26.843Z,24.03
2019-02-07T23:18:55.880Z,17.13
2019-02-07T23:21:25.066Z,11.30
2019-02-07T23:23:54.138Z,17.97
2019-02-07T23:26:23.190Z,10.93
2019-02-07T23:28:52.265Z,14.27
2019-02-07T23:31:21.313Z,10.67
2019-02-07T23:33:50.387Z,12.03
2019-02-07T23:36:19.619Z,11.60
2019-02-07T23:38:48.688Z,12.50
2019-02-07T23:41:18.765Z,18.67
2019-02-07T23:43:47.967Z,11.07
2019-02-07T23:46:17.360Z,13.23
2019-02-07T23:48:46.710Z,15.20
2019-02-07T23:51:16.244Z,11.80
2019-02-07T23:53:45.382Z,12.07
2019-02-07T23:56:14.550Z,16.33
2019-02-07T23:58:43.937Z,16.13
